createdAt,value
2023-12-09T00:00:46.715Z,2.15
2023-12-09T00:03:15.037Z,2.63
2023-12-09T00:05:43.493Z,2.33
2023-12-09T00:08:11.740Z,1.90
2023-12-09T00:10:39.927Z,2.92
2023-12-09T00:13:08.099Z,3.08
2023-12-09T00:15:37.749Z,1.52
2023-12-09T00:18:06.005Z,2.72
2023-12-09T00:20:34.142Z,3.15
2023-12-09T00:23:02.453Z,2.38
2023-12-09T00:25:30.527Z,2.65
2023-12-09T00:27:58.734Z,1.92
2023-12-09T00:30:26.814Z,3.25
2023-12-09T00:32:56.892Z,1.75
2023-12-09T00:35:25.178Z,1.00
2023-12-09T00:37:53.425Z,1.33
2023-12-09T00:40:22.785Z,1.70
2023-12-09T00:42:51.140Z,1.27
2023-12-09T00:45:19.272Z,1.17
2023-12-09T00:47:47.583Z,0.98
2023-12-09T00:50:17.242Z,1.33
2023-12-09T00:52:45.461Z,1.50
2023-12-09T00:55:13.661Z,1.25
2023-12-09T00:57:42.033Z,1.55
2023-12-09T01:00:11.181Z,1.13
2023-12-09T01:02:40.197Z,1.80
2023-12-09T01:05:08.883Z,1.73
2023-12-09T01:07:38.775Z,1.75
2023-12-09T01:10:08.020Z,1.45
2023-12-09T01:12:36.748Z,2.67
2023-12-09T01:15:05.727Z,2.50
2023-12-09T01:17:33.976Z,1.00
2023-12-09T01:20:02.160Z,1.40
2023-12-09T01:22:30.523Z,1.15
2023-12-09T01:25:00.272Z,2.35
2023-12-09T01:27:28.453Z,2.25
2023-12-09T01:29:56.860Z,1.20
2023-12-09T01:32:25.428Z,1.98
2023-12-09T01:34:53.845Z,1.45
2023-12-09T01:37:22.294Z,1.02
2023-12-09T01:39:50.590Z,0.80
2023-12-09T01:42:20.473Z,1.77
2023-12-09T01:44:48.599Z,1.13
2023-12-09T01:47:17.091Z,0.90
2023-12-09T01:49:45.464Z,0.88
2023-12-09T01:52:14.055Z,0.95
2023-12-09T01:54:42.337Z,0.98
2023-12-09T01:57:10.678Z,1.30
2023-12-09T01:59:40.848Z,1.30
2023-12-09T02:02:09.709Z,0.50
2023-12-09T02:04:37.974Z,0.90
2023-12-09T02:07:06.271Z,0.55
2023-12-09T02:09:35.033Z,0.60
2023-12-09T02:12:08.834Z,0.77
2023-12-09T02:14:42.602Z,1.10
2023-12-09T02:17:15.597Z,0.75
2023-12-09T02:19:44.516Z,1.42
2023-12-09T02:22:12.890Z,0.60
2023-12-09T02:24:42.807Z,0.40
2023-12-09T02:27:13.970Z,1.02
2023-12-09T02:29:53.048Z,0.45
2023-12-09T02:32:23.205Z,0.60
2023-12-09T02:34:53.758Z,1.08
2023-12-09T02:37:23.768Z,0.50
2023-12-09T02:39:53.868Z,0.43
2023-12-09T02:42:22.558Z,0.32
2023-12-09T02:44:51.261Z,0.70
2023-12-09T02:47:19.352Z,0.60
2023-12-09T02:49:47.566Z,0.30
2023-12-09T02:52:15.881Z,0.77
2023-12-09T02:54:44.004Z,0.55
2023-12-09T02:57:13.902Z,0.30
2023-12-09T02:59:42.691Z,0.40
2023-12-09T03:02:10.861Z,0.60
2023-12-09T03:04:39.043Z,0.50
2023-12-09T03:07:07.293Z,0.60
2023-12-09T03:09:35.534Z,0.30
2023-12-09T03:12:03.846Z,0.80
2023-12-09T03:14:33.748Z,0.55
2023-12-09T03:17:01.855Z,1.15
2023-12-09T03:19:30.057Z,0.82
2023-12-09T03:21:58.252Z,0.40
2023-12-09T03:24:26.559Z,0.60
2023-12-09T03:26:55.558Z,0.77
2023-12-09T03:29:24.352Z,0.52
2023-12-09T03:31:53.987Z,1.15
2023-12-09T03:34:22.416Z,1.63
2023-12-09T03:36:50.711Z,1.92
2023-12-09T03:39:19.082Z,3.25
2023-12-09T03:41:47.421Z,1.45
2023-12-09T03:44:15.701Z,2.78
2023-12-09T03:46:43.915Z,2.85
2023-12-09T03:49:13.798Z,2.70
2023-12-09T03:51:42.162Z,3.13
2023-12-09T03:54:10.437Z,3.42
2023-12-09T03:56:38.920Z,3.08
2023-12-09T03:59:07.698Z,3.15
2023-12-09T04:01:36.811Z,2.95
2023-12-09T04:04:07.293Z,2.45
2023-12-09T04:06:37.306Z,2.92
2023-12-09T04:09:05.852Z,2.65
2023-12-09T04:11:34.303Z,2.22
2023-12-09T04:14:02.547Z,2.55
2023-12-09T04:16:30.916Z,2.72
2023-12-09T04:18:59.359Z,1.55
2023-12-09T04:21:27.715Z,2.20
2023-12-09T04:23:57.416Z,3.13
2023-12-09T04:26:26.566Z,1.88
2023-12-09T04:28:54.917Z,1.63
2023-12-09T04:31:23.160Z,1.40
2023-12-09T04:33:51.595Z,1.55
2023-12-09T04:36:20.291Z,1.90
2023-12-09T04:38:48.748Z,1.90
2023-12-09T04:41:18.584Z,1.52
2023-12-09T04:43:46.742Z,1.50
2023-12-09T04:46:15.008Z,1.30
2023-12-09T04:48:44.638Z,1.33
2023-12-09T04:51:13.092Z,1.73
2023-12-09T04:53:41.767Z,2.28
2023-12-09T04:56:11.245Z,1.75
2023-12-09T04:58:40.993Z,1.60
2023-12-09T05:01:09.916Z,2.40
2023-12-09T05:03:38.245Z,1.90
2023-12-09T05:06:07.163Z,1.50
2023-12-09T05:08:35.492Z,1.38
2023-12-09T05:11:03.853Z,1.00
2023-12-09T05:13:32.207Z,1.30
2023-12-09T05:16:01.862Z,1.27
2023-12-09T05:18:31.231Z,1.20
2023-12-09T05:20:59.673Z,2.20
2023-12-09T05:23:27.970Z,1.98
2023-12-09T05:25:56.504Z,1.92
2023-12-09T05:28:24.775Z,2.25
2023-12-09T05:30:52.987Z,1.50
2023-12-09T05:33:22.801Z,2.13
2023-12-09T05:35:51.181Z,1.10
2023-12-09T05:38:19.409Z,2.08
2023-12-09T05:40:48.026Z,1.77
2023-12-09T05:43:16.215Z,2.03
2023-12-09T05:45:44.658Z,1.83
2023-12-09T05:48:13.235Z,1.55
2023-12-09T05:50:43.022Z,0.98
2023-12-09T05:53:11.361Z,1.30
2023-12-09T05:55:39.540Z,1.48
2023-12-09T05:58:08.133Z,2.10
2023-12-09T06:00:37.231Z,1.60
2023-12-09T06:03:05.861Z,1.75
2023-12-09T06:05:34.330Z,1.38
2023-12-09T06:08:04.190Z,1.67
2023-12-09T06:10:32.361Z,3.60
2023-12-09T06:13:00.705Z,2.03
2023-12-09T06:15:28.921Z,2.58
2023-12-09T06:17:57.463Z,2.33
2023-12-09T06:20:25.870Z,2.85
2023-12-09T06:22:54.338Z,2.33
2023-12-09T06:25:24.017Z,2.40
2023-12-09T06:27:52.296Z,2.72
2023-12-09T06:30:21.656Z,2.78
2023-12-09T06:32:50.081Z,3.80
2023-12-09T06:35:18.330Z,2.63
2023-12-09T06:37:46.721Z,3.03
2023-12-09T06:40:15.175Z,2.50
2023-12-09T06:42:44.881Z,3.45
2023-12-09T06:45:13.237Z,3.45
2023-12-09T06:47:41.609Z,3.00
2023-12-09T06:50:10.286Z,3.58
2023-12-09T06:52:38.961Z,3.20
2023-12-09T06:55:08.011Z,3.45
2023-12-09T06:57:36.664Z,2.97
2023-12-09T07:00:09.515Z,4.32
2023-12-09T07:02:45.821Z,2.60
2023-12-09T07:05:22.332Z,2.78
2023-12-09T07:07:52.391Z,3.75
2023-12-09T07:10:21.073Z,3.03
2023-12-09T07:12:49.534Z,2.60
2023-12-09T07:15:19.343Z,2.55
2023-12-09T07:17:47.669Z,3.20
2023-12-09T07:20:16.177Z,3.15
2023-12-09T07:22:44.467Z,2.53
2023-12-09T07:25:12.683Z,2.17
2023-12-09T07:27:40.959Z,4.30
2023-12-09T07:30:10.310Z,3.15
2023-12-09T07:32:40.662Z,2.83
2023-12-09T07:35:09.602Z,2.30
2023-12-09T07:37:37.876Z,2.83
2023-12-09T07:40:07.437Z,3.13
2023-12-09T07:42:35.637Z,3.10
2023-12-09T07:45:04.014Z,3.47
2023-12-09T07:47:32.321Z,2.42
2023-12-09T07:50:02.197Z,3.20
2023-12-09T07:52:30.719Z,2.65
2023-12-09T07:54:58.996Z,3.22
2023-12-09T07:57:27.424Z,4.00
2023-12-09T07:59:55.739Z,2.90
2023-12-09T08:02:24.167Z,3.92
2023-12-09T08:04:52.607Z,3.80
2023-12-09T08:07:22.353Z,2.85
2023-12-09T08:09:50.590Z,2.92
2023-12-09T08:12:18.952Z,2.95
2023-12-09T08:14:47.295Z,2.20
2023-12-09T08:17:15.552Z,3.17
2023-12-09T08:19:43.886Z,3.05
2023-12-09T08:22:13.825Z,2.40
2023-12-09T08:24:44.792Z,2.37
2023-12-09T08:27:13.247Z,2.15
2023-12-09T08:29:41.595Z,2.00
2023-12-09T08:32:10.509Z,1.70
2023-12-09T08:34:38.931Z,1.35
2023-12-09T08:37:07.327Z,1.58
2023-12-09T08:39:39.919Z,1.42
2023-12-09T08:42:10.169Z,1.80
2023-12-09T08:44:39.310Z,1.45
2023-12-09T08:47:07.914Z,1.20
2023-12-09T08:49:36.321Z,1.70
2023-12-09T08:52:04.732Z,1.77
2023-12-09T08:54:33.051Z,1.40
2023-12-09T08:57:01.485Z,2.45
2023-12-09T08:59:31.250Z,1.85
2023-12-09T09:01:59.490Z,1.88
2023-12-09T09:04:27.932Z,2.15
2023-12-09T09:06:56.484Z,2.22
2023-12-09T09:09:24.879Z,3.13
2023-12-09T09:11:53.434Z,2.47
2023-12-09T09:14:21.687Z,1.63
2023-12-09T09:16:51.816Z,1.98
2023-12-09T09:19:20.278Z,3.67
2023-12-09T09:21:48.672Z,2.20
2023-12-09T09:24:16.996Z,2.83
2023-12-09T09:26:45.278Z,3.13
2023-12-09T09:29:13.837Z,2.20
2023-12-09T09:31:44.351Z,2.60
2023-12-09T09:34:14.387Z,2.47
2023-12-09T09:36:51.888Z,2.80
2023-12-09T09:39:21.327Z,2.53
2023-12-09T09:42:00.992Z,2.33
2023-12-09T09:44:31.433Z,2.05
2023-12-09T09:47:02.207Z,2.35
2023-12-09T09:49:34.174Z,3.08
2023-12-09T09:52:04.926Z,3.08
2023-12-09T09:54:33.981Z,2.05
2023-12-09T09:57:05.173Z,1.77
2023-12-09T09:59:34.583Z,0.85
2023-12-09T10:02:07.466Z,0.93
2023-12-09T10:04:38.336Z,0.98
2023-12-09T10:07:07.132Z,1.33
2023-12-09T10:09:36.192Z,1.05
2023-12-09T10:12:04.830Z,0.75
2023-12-09T10:14:33.244Z,1.45
2023-12-09T10:17:03.478Z,1.10
2023-12-09T10:19:31.932Z,1.35
2023-12-09T10:22:01.672Z,1.20
2023-12-09T10:24:30.267Z,1.23
2023-12-09T10:26:59.159Z,1.40
2023-12-09T10:29:30.733Z,0.90
2023-12-09T10:32:02.517Z,1.30
2023-12-09T10:34:31.690Z,1.38
2023-12-09T10:37:01.566Z,1.13
2023-12-09T10:39:30.940Z,1.00
2023-12-09T10:42:01.960Z,1.00
2023-12-09T10:44:30.325Z,0.95
2023-12-09T10:46:58.713Z,0.70
2023-12-09T10:49:27.421Z,1.02
2023-12-09T10:51:57.648Z,0.98
2023-12-09T10:54:27.516Z,1.20
2023-12-09T10:56:55.971Z,1.45
2023-12-09T10:59:27.000Z,1.88
2023-12-09T11:01:55.896Z,1.67
2023-12-09T11:04:24.318Z,2.08
2023-12-09T11:06:54.300Z,2.55
2023-12-09T11:09:23.037Z,2.15
2023-12-09T11:11:53.735Z,2.53
2023-12-09T11:14:27.288Z,3.28
2023-12-09T11:16:58.838Z,3.63
2023-12-09T11:19:27.905Z,1.90
2023-12-09T11:21:59.477Z,2.72
2023-12-09T11:24:32.723Z,3.03
2023-12-09T11:27:06.733Z,4.60
2023-12-09T11:29:36.266Z,3.30
2023-12-09T11:32:09.627Z,3.95
2023-12-09T11:34:40.758Z,5.82
2023-12-09T11:37:12.670Z,4.22
2023-12-09T11:39:43.289Z,4.43
2023-12-09T11:42:16.037Z,4.82
2023-12-09T11:44:44.657Z,5.07
2023-12-09T11:47:13.989Z,3.58
2023-12-09T11:49:43.819Z,3.35
2023-12-09T11:52:15.352Z,5.38
2023-12-09T11:54:43.712Z,5.93
2023-12-09T11:57:13.517Z,5.47
2023-12-09T11:59:41.823Z,6.03
2023-12-09T12:02:13.331Z,4.68
2023-12-09T12:04:41.668Z,4.45
2023-12-09T12:07:10.086Z,5.88
2023-12-09T12:09:40.121Z,5.95
2023-12-09T12:12:09.087Z,5.97
2023-12-09T12:14:39.179Z,4.30
2023-12-09T12:17:09.584Z,6.03
2023-12-09T12:19:38.162Z,5.93
2023-12-09T12:22:06.867Z,4.65
2023-12-09T12:24:42.622Z,5.90
2023-12-09T12:27:11.456Z,5.55
2023-12-09T12:29:42.187Z,6.03
2023-12-09T12:32:14.199Z,5.00
2023-12-09T12:34:46.509Z,3.67
2023-12-09T12:37:14.860Z,5.28
2023-12-09T12:39:43.543Z,4.22
2023-12-09T12:42:12.011Z,6.32
2023-12-09T12:44:44.657Z,4.57
2023-12-09T12:47:12.828Z,5.07
2023-12-09T12:49:41.029Z,5.88
2023-12-09T12:52:09.653Z,4.50
2023-12-09T12:54:37.956Z,4.22
2023-12-09T12:57:06.911Z,4.38
2023-12-09T12:59:35.162Z,4.43
2023-12-09T13:02:04.880Z,3.88
2023-12-09T13:04:33.306Z,5.10
2023-12-09T13:07:01.651Z,3.80
2023-12-09T13:09:30.144Z,5.07
2023-12-09T13:11:58.487Z,6.22
2023-12-09T13:14:26.707Z,5.30
2023-12-09T13:16:55.030Z,4.90
2023-12-09T13:19:24.844Z,4.18
2023-12-09T13:21:53.064Z,4.90
2023-12-09T13:24:21.365Z,4.65
2023-12-09T13:26:49.948Z,5.18
2023-12-09T13:29:18.405Z,5.18
2023-12-09T13:31:46.702Z,4.95
2023-12-09T13:34:15.012Z,4.30
2023-12-09T13:36:45.488Z,5.28
2023-12-09T13:39:15.521Z,3.83
2023-12-09T13:41:44.393Z,4.88
2023-12-09T13:44:13.705Z,5.00
2023-12-09T13:46:41.952Z,4.47
2023-12-09T13:49:10.342Z,3.78
2023-12-09T13:51:56.960Z,4.13
2023-12-09T13:54:26.830Z,4.68
2023-12-09T13:56:55.106Z,4.05
2023-12-09T13:59:23.384Z,4.45
2023-12-09T14:01:51.529Z,5.22
2023-12-09T14:04:20.299Z,4.80
2023-12-09T14:06:48.588Z,5.60
2023-12-09T14:09:16.924Z,6.95
2023-12-09T14:11:46.940Z,12.93
2023-12-09T14:14:15.141Z,5.80
2023-12-09T14:16:43.998Z,5.15
2023-12-09T14:19:12.861Z,6.00
2023-12-09T14:21:40.290Z,3.75
2023-12-09T14:24:09.828Z,5.45
2023-12-09T14:26:38.335Z,5.63
2023-12-09T14:29:08.140Z,5.85
2023-12-09T14:31:36.304Z,5.88
2023-12-09T14:34:04.739Z,5.68
2023-12-09T14:36:33.102Z,4.60
2023-12-09T14:39:01.749Z,4.82
2023-12-09T14:41:30.072Z,5.10
2023-12-09T14:44:03.502Z,5.50
2023-12-09T14:46:37.841Z,6.28
2023-12-09T14:49:06.576Z,4.63
2023-12-09T14:51:42.658Z,4.43
2023-12-09T14:54:14.253Z,6.32
2023-12-09T14:56:44.364Z,4.87
2023-12-09T14:59:13.279Z,4.43
2023-12-09T15:01:42.944Z,5.65
2023-12-09T15:04:11.581Z,3.38
2023-12-09T15:06:40.094Z,5.13
2023-12-09T15:09:11.417Z,4.20
2023-12-09T15:11:39.976Z,4.93
2023-12-09T15:14:08.339Z,5.72
2023-12-09T15:16:37.011Z,6.25
2023-12-09T15:19:09.359Z,5.95
2023-12-09T15:21:39.979Z,5.43
2023-12-09T15:24:08.818Z,4.95
2023-12-09T15:26:38.845Z,4.53
2023-12-09T15:29:07.825Z,5.35
2023-12-09T15:31:36.456Z,3.95
2023-12-09T15:34:08.887Z,5.55
2023-12-09T15:39:06.822Z,4.43
2023-12-09T15:41:35.646Z,6.15
2023-12-09T15:44:04.198Z,4.55
2023-12-09T15:46:32.797Z,4.80
2023-12-09T15:49:02.288Z,4.95
2023-12-09T15:51:38.887Z,5.57
2023-12-09T15:54:09.190Z,4.55
2023-12-09T15:56:37.705Z,3.80
2023-12-09T15:59:08.196Z,1.92
2023-12-09T16:01:39.514Z,2.50
2023-12-09T16:04:08.509Z,1.45
2023-12-09T16:06:41.439Z,1.58
2023-12-09T16:09:14.116Z,1.05
2023-12-09T16:11:42.689Z,1.98
2023-12-09T16:14:16.849Z,1.70
2023-12-09T16:16:50.158Z,1.35
2023-12-09T16:19:23.044Z,2.03
2023-12-09T16:21:53.007Z,2.30
2023-12-09T16:24:28.344Z,1.50
2023-12-09T16:26:59.123Z,2.30
2023-12-09T16:29:30.134Z,1.98
2023-12-09T16:31:58.811Z,1.90
2023-12-09T16:34:27.188Z,2.03
2023-12-09T16:36:57.437Z,1.98
2023-12-09T16:39:26.598Z,2.65
2023-12-09T16:41:56.949Z,3.30
2023-12-09T16:44:27.129Z,2.60
2023-12-09T16:47:05.377Z,1.83
2023-12-09T16:49:34.165Z,2.08
2023-12-09T16:52:04.948Z,1.95
2023-12-09T16:54:36.247Z,1.90
2023-12-09T16:57:06.118Z,1.88
2023-12-09T16:59:34.486Z,2.15
2023-12-09T17:02:03.021Z,2.35
2023-12-09T17:04:36.596Z,2.22
2023-12-09T17:07:06.739Z,2.13
2023-12-09T17:09:35.377Z,2.95
2023-12-09T17:12:04.205Z,1.95
2023-12-09T17:14:34.674Z,1.85
2023-12-09T17:17:05.302Z,2.88
2023-12-09T17:19:33.980Z,1.48
2023-12-09T17:22:02.696Z,2.33
2023-12-09T17:24:32.962Z,2.80
2023-12-09T17:27:03.406Z,2.05
2023-12-09T17:29:31.843Z,2.25
2023-12-09T17:32:03.274Z,2.80
2023-12-09T17:34:32.155Z,2.70
2023-12-09T17:37:01.003Z,2.05
2023-12-09T17:39:32.842Z,2.08
2023-12-09T17:42:03.559Z,2.08
2023-12-09T17:44:35.636Z,1.55
2023-12-09T17:47:04.317Z,2.08
2023-12-09T17:49:32.800Z,2.88
2023-12-09T17:52:01.621Z,1.77
2023-12-09T17:54:39.252Z,2.92
2023-12-09T17:57:10.023Z,2.20
2023-12-09T17:59:40.394Z,2.08
2023-12-09T18:02:09.852Z,2.40
2023-12-09T18:04:40.263Z,1.63
2023-12-09T18:07:10.810Z,2.55
2023-12-09T18:09:39.673Z,2.60
2023-12-09T18:12:09.845Z,3.28
2023-12-09T18:14:38.317Z,2.83
2023-12-09T18:17:32.426Z,1.73
2023-12-09T18:20:01.989Z,2.00
2023-12-09T18:22:46.367Z,1.90
2023-12-09T18:25:20.122Z,2.50
2023-12-09T18:32:18.201Z,2.58
2023-12-09T18:34:56.185Z,2.13
2023-12-09T18:37:42.109Z,2.05
2023-12-09T18:43:37.942Z,2.42
2023-12-09T18:46:07.025Z,3.25
2023-12-09T18:48:44.122Z,3.08
2023-12-09T18:51:22.802Z,3.00
2023-12-09T18:53:51.150Z,2.63
2023-12-09T18:56:25.668Z,2.75
2023-12-09T18:59:01.593Z,2.85
2023-12-09T19:01:30.030Z,3.55
2023-12-09T19:04:01.745Z,2.50
2023-12-09T19:06:32.691Z,2.03
2023-12-09T19:09:06.154Z,2.67
2023-12-09T19:11:34.504Z,2.58
2023-12-09T19:14:04.142Z,3.00
2023-12-09T19:16:32.475Z,2.47
2023-12-09T19:19:00.862Z,2.70
2023-12-09T19:21:29.562Z,1.58
2023-12-09T19:23:57.830Z,2.60
2023-12-09T19:26:26.171Z,3.72
2023-12-09T19:28:54.667Z,3.05
2023-12-09T19:31:24.240Z,2.67
2023-12-09T19:33:52.607Z,2.80
2023-12-09T19:36:21.211Z,1.98
2023-12-09T19:38:49.600Z,2.50
2023-12-09T19:41:17.829Z,3.53
2023-12-09T19:43:46.106Z,2.08
2023-12-09T19:46:14.485Z,2.50
2023-12-09T19:48:44.146Z,2.13
2023-12-09T19:51:12.568Z,2.40
2023-12-09T19:53:40.833Z,2.28
2023-12-09T19:56:10.167Z,3.05
2023-12-09T19:58:38.295Z,2.15
2023-12-09T20:01:07.245Z,3.25
2023-12-09T20:07:37.770Z,3.17
2023-12-09T20:10:07.223Z,2.75
2023-12-09T20:12:35.448Z,3.10
2023-12-09T20:15:05.113Z,3.80
2023-12-09T20:17:33.420Z,3.83
2023-12-09T20:20:01.639Z,2.38
2023-12-09T20:22:30.146Z,3.65
2023-12-09T20:25:01.493Z,2.75
2023-12-09T20:27:30.273Z,2.80
2023-12-09T20:29:58.466Z,1.85
2023-12-09T20:32:27.148Z,2.83
2023-12-09T20:34:57.014Z,2.28
2023-12-09T20:37:25.419Z,2.47
2023-12-09T20:39:58.233Z,2.67
2023-12-09T20:42:28.373Z,2.67
2023-12-09T20:44:56.821Z,3.80
2023-12-09T20:47:25.110Z,3.65
2023-12-09T20:49:53.610Z,2.70
2023-12-09T20:52:21.738Z,2.67
2023-12-09T20:54:49.947Z,2.95
2023-12-09T20:57:18.439Z,2.78
2023-12-09T20:59:48.152Z,4.55
2023-12-09T21:02:17.202Z,4.20
2023-12-09T21:04:46.387Z,2.33
2023-12-09T21:07:14.610Z,3.85
2023-12-09T21:09:42.784Z,3.30
2023-12-09T21:12:10.982Z,2.55
2023-12-09T21:14:39.296Z,3.78
2023-12-09T21:17:09.660Z,3.35
2023-12-09T21:19:38.813Z,3.78
2023-12-09T21:22:08.140Z,3.22
2023-12-09T21:24:37.186Z,2.85
2023-12-09T21:27:05.827Z,3.92
2023-12-09T21:29:34.521Z,3.45
2023-12-09T21:32:02.661Z,3.33
2023-12-09T21:34:32.309Z,3.60
2023-12-09T21:37:00.471Z,3.85
2023-12-09T21:39:28.730Z,3.42
2023-12-09T21:41:56.862Z,3.55
2023-12-09T21:44:25.118Z,3.53
2023-12-09T21:46:53.239Z,4.88
2023-12-09T21:49:21.826Z,2.72
2023-12-09T21:51:52.012Z,3.30
2023-12-09T21:54:20.575Z,3.60
2023-12-09T21:56:48.724Z,3.03
2023-12-09T21:59:16.834Z,2.90
2023-12-09T22:01:45.725Z,3.85
2023-12-09T22:04:14.642Z,3.95
2023-12-09T22:06:43.186Z,3.58
2023-12-09T22:09:14.586Z,2.90
2023-12-09T22:11:43.009Z,3.85
2023-12-09T22:14:11.455Z,3.95
2023-12-09T22:16:39.620Z,3.35
2023-12-09T22:19:07.821Z,2.92
2023-12-09T22:21:40.568Z,3.83
2023-12-09T22:24:09.410Z,2.75
2023-12-09T22:26:45.340Z,4.03
2023-12-09T22:29:13.619Z,3.03
2023-12-09T22:31:43.223Z,3.78
2023-12-09T22:34:12.264Z,3.03
2023-12-09T22:36:41.084Z,3.13
2023-12-09T22:39:13.023Z,3.30
2023-12-09T22:41:41.453Z,3.92
2023-12-09T22:44:11.697Z,2.38
2023-12-09T22:46:39.979Z,2.80
2023-12-09T22:49:08.585Z,2.95
2023-12-09T22:51:37.309Z,2.58
2023-12-09T22:54:05.846Z,2.67
2023-12-09T22:56:34.117Z,2.72
2023-12-09T22:59:02.256Z,4.57
2023-12-09T23:01:34.167Z,4.40
2023-12-09T23:04:03.228Z,4.35
2023-12-09T23:06:31.620Z,2.75
2023-12-09T23:08:59.848Z,2.78
2023-12-09T23:11:28.016Z,3.58
2023-12-09T23:13:56.241Z,2.90
2023-12-09T23:16:24.459Z,4.05
2023-12-09T23:18:54.149Z,3.35
2023-12-09T23:21:22.480Z,3.30
2023-12-09T23:23:50.671Z,3.95
2023-12-09T23:26:18.823Z,3.70
2023-12-09T23:28:46.974Z,3.47
2023-12-09T23:31:18.058Z,2.88
2023-12-09T23:33:48.849Z,3.45
2023-12-09T23:36:18.708Z,3.95
2023-12-09T23:38:46.839Z,4.20
2023-12-09T23:41:15.924Z,4.03
2023-12-09T23:43:44.256Z,2.97
2023-12-09T23:46:16.266Z,2.55
2023-12-09T23:48:44.678Z,4.82
2023-12-09T23:51:13.139Z,3.63
2023-12-09T23:53:42.971Z,4.35
2023-12-09T23:56:11.576Z,3.85
2023-12-09T23:58:39.978Z,3.42
